Terminal Aerodrome Forecast
Issued by NWS

Current Version | Previous Version | Graphics & Text | Print | Product List | Glossary On
Versions: 1 2 3 4 5 6 7 8 9 10 11 12 13 14 15
000
FTUS41 KRNK 221611 AAA
TAFLWB
TAF AMD
KLWB 221611Z 2216/2312 29010G18KT P6SM SCT030
     FM222000 31008KT P6SM SCT060
     FM230100 00000KT P6SM FEW035=

USA.gov is the U.S. government's official web portal to all federal, state and local government web resources and services.